AF7622 / F-GKXQ 7700 Squawk Report (23rd of September, 2021)

Aircraft A320 Reg No. F-GKXQ Age 12 years old
Model A320 Jet engines 2 First flight 20-01-09
Registered 30-01-09 Rollout 01-09 Delivered 30-01-09
Construction No. 3777 Line No. N/A Series 214
ADSHEX 392AF0 Airline name Air France Owner N/A
Airfield based Paris-Charles de Gaulle~Val-d'Oise~F First tracked N/A
Time Lat Lon Altitude Heading Speed Vertical Rate
2021-09-23 08:07:39 GMT 49.008041 2.569211 0 154 12 0
2021-09-23 08:07:36 GMT 49.008179 2.569146 0 132 12 0
2021-09-23 08:07:20 GMT 49.008362 2.568107 0 84 7 0
2021-09-23 08:07:10 GMT 49.008324 2.567169 0 84 21 0
2021-09-23 08:07:08 GMT 49.008293 2.566699 0 84 21 0
2021-09-23 08:06:52 GMT 49.008160 2.564549 0 81 21 0
2021-09-23 08:06:46 GMT 49.008102 2.563862 0 81 18 0
2021-09-23 08:06:34 GMT 49.007950 2.562385 0 81 18 0
2021-09-23 08:06:24 GMT 49.007824 2.561012 0 81 23 0
2021-09-23 08:06:15 GMT 49.007683 2.559598 0 81 23 0
2021-09-23 08:06:04 GMT 49.007526 2.557913 0 81 22 0
2021-09-23 08:05:54 GMT 49.007389 2.556452 0 84 21 0
2021-09-23 08:05:46 GMT 49.007298 2.555166 0 84 20 0
2021-09-23 08:03:04 GMT 48.998920 2.560935 0 264 19 0
2021-09-23 08:02:54 GMT 48.998989 2.562138 0 264 21 0
2021-09-23 08:02:44 GMT 48.999058 2.563494 0 264 17 0
2021-09-23 08:02:34 GMT 48.999119 2.564567 0 267 14 0
2021-09-23 08:02:23 GMT 48.999081 2.565448 0 298 9 0
2021-09-23 07:58:27 GMT 48.998245 2.600027 0 331 5 0
2021-09-23 07:58:27 GMT 48.998245 2.600027 0 292 5 0
2021-09-23 07:58:27 GMT 48.998245 2.600027 125 266 143 -768
2021-09-23 07:58:23 GMT 48.998474 2.604816 125 266 143 -768
2021-09-23 07:58:20 GMT 48.998604 2.607229 175 266 143 -768
2021-09-23 07:58:09 GMT 48.999165 2.617565 300 266 144 -704
2021-09-23 07:58:05 GMT 48.999390 2.622000 350 265 144 -896
2021-09-23 07:57:59 GMT 48.999756 2.628268 450 265 143 -768
2021-09-23 07:57:56 GMT 48.999939 2.631226 475 265 143 -768
2021-09-23 07:57:50 GMT 49.000278 2.637731 550 267 143 -768
2021-09-23 07:57:46 GMT 49.000443 2.641578 600 266 143 -704
2021-09-23 07:57:42 GMT 49.000580 2.644677 650 266 142 -704
2021-09-23 07:57:39 GMT 49.000763 2.647776 675 266 142 -704
2021-09-23 07:57:32 GMT 49.001175 2.655522 775 266 143 -704
2021-09-23 07:57:29 GMT 49.001312 2.657987 800 266 142 -640
2021-09-23 07:57:25 GMT 49.001537 2.662233 850 266 143 -704
2021-09-23 07:57:22 GMT 49.002045 2.672495 950 266 145 -768
2021-09-23 07:57:16 GMT 49.002045 2.672495 975 266 147 -960
2021-09-23 07:57:12 GMT 49.002182 2.675171 1,025 266 148 -960
2021-09-23 07:57:09 GMT 49.002377 2.678929 1,075 266 149 -960
2021-09-23 07:57:05 GMT 49.002701 2.685434 1,175 266 153 -832
2021-09-23 07:57:02 GMT 49.002701 2.685434 1,175 268 177 -1088
2021-09-23 07:56:58 GMT 49.002888 2.689916 1,225 267 158 -640
2021-09-23 07:56:55 GMT 49.003052 2.693974 1,275 267 166 -640
2021-09-23 07:56:52 GMT 49.003235 2.697496 1,300 267 166 -640
2021-09-23 07:56:49 GMT 49.003353 2.701047 1,325 267 171 -1024
2021-09-23 07:56:45 GMT 49.003555 2.705876 1,450 268 175 -1152
2021-09-23 07:56:42 GMT 49.003677 2.709070 1,550 268 177 -1088
2021-09-23 07:56:38 GMT 49.003784 2.713905 1,550 269 173 -768
2021-09-23 07:56:35 GMT 49.003864 2.718032 1,600 269 171 -768
2021-09-23 07:56:32 GMT 49.003922 2.721652 1,625 270 173 -704
2021-09-23 07:56:28 GMT 49.003967 2.725947 1,650 271 176 -832
2021-09-23 07:56:24 GMT 49.003510 2.739258 1,725 273 178 -576
2021-09-23 07:56:17 GMT 49.003510 2.739258 1,750 278 179 -192
2021-09-23 07:56:13 GMT 49.002792 2.744992 1,750 288 185 0
2021-09-23 07:56:08 GMT 49.001312 2.751301 1,750 296 190 256
2021-09-23 07:56:02 GMT 48.998882 2.758436 1,750 299 198 -64
2021-09-23 07:55:58 GMT 48.997208 2.763206 1,750 299 198 -64
2021-09-23 07:55:53 GMT 48.994904 2.769752 1,725 299 201 128
2021-09-23 07:55:48 GMT 48.992798 2.775808 1,750 299 199 128
2021-09-23 07:55:44 GMT 48.991112 2.780481 1,750 299 201 128
2021-09-23 07:55:41 GMT 48.989944 2.783878 1,725 299 209 64
2021-09-23 07:55:37 GMT 48.988129 2.788978 1,725 299 210 0
2021-09-23 07:55:34 GMT 48.986435 2.793837 1,725 299 220 -192
2021-09-23 07:55:31 GMT 48.985336 2.796936 1,725 299 218 -192
2021-09-23 07:55:25 GMT 48.982452 2.805055 1,750 299 220 -192
2021-09-23 07:55:22 GMT 48.980942 2.809472 1,800 299 219 -320
2021-09-23 07:55:17 GMT 48.978470 2.816373 2,275 301 221 -1024
2021-09-23 07:55:14 GMT 48.976818 2.820812 1,850 300 220 -896
2021-09-23 07:55:08 GMT 48.973343 2.829613 1,950 304 221 -1408
2021-09-23 07:55:04 GMT 48.971233 2.834184 2,050 307 221 -1472
2021-09-23 07:55:00 GMT 48.969322 2.838014 2,175 310 220 -1344
2021-09-23 07:54:57 GMT 48.967117 2.842079 2,725 354 229 -448
2021-09-23 07:54:51 GMT 48.963226 2.849145 2,325 311 222 -1152
2021-09-23 07:54:47 GMT 48.960480 2.853916 2,400 312 222 -960
2021-09-23 07:54:43 GMT 48.957451 2.858831 2,450 315 224 -832
2021-09-23 07:54:40 GMT 48.955078 2.862155 2,500 325 225 -896
2021-09-23 07:54:37 GMT 48.953449 2.864179 2,525 323 225 -896
2021-09-23 07:54:34 GMT 48.950329 2.867215 2,575 336 227 -832
2021-09-23 07:54:31 GMT 48.947937 2.868981 2,650 342 227 -768
2021-09-23 07:54:27 GMT 48.942947 2.871446 2,675 348 228 -576
2021-09-23 07:54:22 GMT 48.937408 2.872502 2,725 2 230 -192
2021-09-23 07:54:18 GMT 48.934456 2.872419 2,725 10 231 -64
2021-09-23 07:54:13 GMT 48.928589 2.870756 2,725 17 231 0
2021-09-23 07:54:09 GMT 48.924225 2.868277 2,725 29 231 0
2021-09-23 07:54:06 GMT 48.922398 2.866853 2,725 29 231 64
2021-09-23 07:54:01 GMT 48.917511 2.861649 2,725 44 232 0
2021-09-23 07:53:58 GMT 48.915134 2.858108 2,725 50 233 0
2021-09-23 07:53:53 GMT 48.911785 2.851386 2,725 58 233 -64
2021-09-23 07:53:50 GMT 48.910400 2.847642 2,725 68 233 -128
2021-09-23 07:53:47 GMT 48.908760 2.841990 2,750 70 234 -64
2021-09-23 07:53:42 GMT 48.907314 2.835918 2,750 70 234 0
2021-09-23 07:53:39 GMT 48.906292 2.831437 2,750 70 237 0
2021-09-23 07:53:36 GMT 48.904999 2.825810 2,750 70 236 0
2021-09-23 07:53:33 GMT 48.903778 2.820523 2,750 70 237 0
2021-09-23 07:53:30 GMT 48.902802 2.816444 2,750 70 238 0
2021-09-23 07:53:24 GMT 48.900845 2.807874 2,750 70 241 0
2021-09-23 07:53:20 GMT 48.899185 2.800809 2,725 70 246 64
2021-09-23 07:53:16 GMT 48.897633 2.794141 2,725 70 247 64
2021-09-23 07:53:12 GMT 48.896004 2.786986 2,725 70 252 0
2021-09-23 07:53:08 GMT 48.894325 2.779758 2,725 70 257 0
2021-09-23 07:53:05 GMT 48.893646 2.776865 2,725 70 259 0
2021-09-23 07:53:00 GMT 48.891312 2.766864 2,725 70 264 0
2021-09-23 07:52:57 GMT 48.890091 2.761616 2,725 70 264 0
2021-09-23 07:52:54 GMT 48.888741 2.755834 2,725 70 264 0
2021-09-23 07:52:50 GMT 48.887486 2.750413 2,725 70 264 0
2021-09-23 07:52:47 GMT 48.886002 2.744117 2,725 70 264 0
2021-09-23 07:52:44 GMT 48.884995 2.739751 2,725 70 264 0
2021-09-23 07:52:41 GMT 48.883808 2.734728 2,725 70 264 0
2021-09-23 07:52:37 GMT 48.882130 2.727501 2,750 70 264 0
2021-09-23 07:52:34 GMT 48.880642 2.721068 2,725 70 265 0
2021-09-23 07:52:30 GMT 48.879013 2.714057 2,750 71 265 0
2021-09-23 07:52:26 GMT 48.877350 2.706651 2,725 71 265 0
2021-09-23 07:52:22 GMT 48.875801 2.699673 2,725 71 265 0
2021-09-23 07:52:19 GMT 48.875099 2.696493 2,725 73 264 64
2021-09-23 07:52:16 GMT 48.873734 2.689538 2,725 74 265 64
2021-09-23 07:52:13 GMT 48.872913 2.685073 2,725 76 265 64
2021-09-23 07:52:10 GMT 48.871948 2.678129 2,725 82 266 0
2021-09-23 07:52:07 GMT 48.871471 2.672641 2,725 85 265 0
2021-09-23 07:52:04 GMT 48.871216 2.668903 2,725 86 265 0
2021-09-23 07:52:01 GMT 48.871124 2.662776 2,725 90 266 0
2021-09-23 07:51:58 GMT 48.871124 2.656227 2,725 90 266 0
2021-09-23 07:51:55 GMT 48.871189 2.651030 2,725 90 266 0
2021-09-23 07:51:51 GMT 48.871216 2.643902 2,725 90 266 0
2021-09-23 07:51:48 GMT 48.871284 2.639032 2,725 90 267 0
2021-09-23 07:51:45 GMT 48.871330 2.632527 2,725 90 267 0
2021-09-23 07:51:42 GMT 48.871399 2.627493 2,725 90 267 0
2021-09-23 07:51:39 GMT 48.871490 2.620732 2,725 90 267 0
2021-09-23 07:51:35 GMT 48.871517 2.613806 2,725 90 267 0
2021-09-23 07:51:32 GMT 48.871563 2.609325 2,725 90 267 0
2021-09-23 07:51:29 GMT 48.871674 2.601788 2,750 90 267 -64
2021-09-23 07:51:26 GMT 48.871719 2.597140 2,750 90 266 -64
2021-09-23 07:51:22 GMT 48.871750 2.590822 2,750 90 266 -128
2021-09-23 07:51:18 GMT 48.871811 2.582773 2,775 90 266 -192
2021-09-23 07:51:14 GMT 48.871857 2.575660 2,775 90 266 -256
2021-09-23 07:51:11 GMT 48.871902 2.564463 2,800 90 268 -576
2021-09-23 07:51:08 GMT 48.871902 2.564463 2,900 89 273 -1536
2021-09-23 07:51:05 GMT 48.871902 2.556927 2,875 89 271 0
2021-09-23 07:51:02 GMT 48.871902 2.552561 2,900 89 271 -1088
2021-09-23 07:50:59 GMT 48.871887 2.544925 2,975 89 272 -1408
2021-09-23 07:50:55 GMT 48.871841 2.537480 3,075 89 273 -1600
2021-09-23 07:50:50 GMT 48.871765 2.528687 3,225 89 273 -1664
2021-09-23 07:50:46 GMT 48.871674 2.513616 3,350 89 272 -1600
2021-09-23 07:50:42 GMT 48.871674 2.513616 3,425 89 272 -1536
2021-09-23 07:50:38 GMT 48.871658 2.505967 3,650 89 273 -512
2021-09-23 07:50:34 GMT 48.871563 2.498884 3,600 89 272 -1088
2021-09-23 07:50:29 GMT 48.871536 2.489530 3,675 89 273 -704
2021-09-23 07:50:26 GMT 48.871471 2.483416 3,700 89 273 -512
2021-09-23 07:50:22 GMT 48.871426 2.474454 3,725 89 274 -192
2021-09-23 07:50:18 GMT 48.871353 2.467487 3,725 89 274 -64
2021-09-23 07:50:14 GMT 48.871307 2.460022 3,750 89 274 0
2021-09-23 07:50:11 GMT 48.871239 2.454649 3,750 89 274 0
2021-09-23 07:50:07 GMT 48.871170 2.447698 3,750 89 274 0
2021-09-23 07:50:04 GMT 48.871143 2.440772 3,750 89 274 0
2021-09-23 07:49:58 GMT 48.871006 2.427906 3,725 89 275 0
2021-09-23 07:49:54 GMT 48.870956 2.421112 3,725 89 275 0
2021-09-23 07:49:49 GMT 48.870895 2.412626 3,725 89 275 -64
2021-09-23 07:49:46 GMT 48.870911 2.405717 3,725 89 276 0
2021-09-23 07:49:43 GMT 48.870895 2.400654 3,725 90 274 64
2021-09-23 07:49:39 GMT 48.870895 2.392836 3,725 91 273 64
2021-09-23 07:49:36 GMT 48.870956 2.386708 3,725 91 273 64
2021-09-23 07:49:33 GMT 48.871143 2.380347 3,725 93 272 64
2021-09-23 07:49:29 GMT 48.871563 2.372975 3,725 104 271 -128
2021-09-23 07:49:25 GMT 48.872169 2.367120 3,725 104 271 -128
2021-09-23 07:49:22 GMT 48.873192 2.361482 3,750 107 268 -128
2021-09-23 07:49:19 GMT 48.874496 2.356206 3,750 116 261 64
2021-09-23 07:49:16 GMT 48.877991 2.346497 3,750 122 255 128
2021-09-23 07:49:13 GMT 48.877991 2.346497 3,750 130 251 128
2021-09-23 07:49:10 GMT 48.880188 2.342201 3,725 132 250 128
2021-09-23 07:49:06 GMT 48.887100 2.332905 3,725 144 250 64
2021-09-23 07:49:02 GMT 48.887100 2.332905 3,725 148 249 64
2021-09-23 07:48:59 GMT 48.889984 2.330369 3,725 156 249 64
2021-09-23 07:48:56 GMT 48.892883 2.328306 3,725 162 247 0
2021-09-23 07:48:53 GMT 48.897034 2.326214 3,725 168 248 -64
2021-09-23 07:48:47 GMT 48.904385 2.324548 3,725 177 246 -64
2021-09-23 07:48:43 GMT 48.907688 2.324259 3,750 177 246 -64
2021-09-23 07:48:38 GMT 48.914154 2.323961 3,750 177 245 -64
2021-09-23 07:48:34 GMT 48.919006 2.323679 3,750 177 244 -128
2021-09-23 07:48:30 GMT 48.923859 2.323397 3,775 178 243 -192
2021-09-23 07:48:27 GMT 48.925892 2.323319 3,775 178 243 -192
2021-09-23 07:48:24 GMT 48.930359 2.323115 3,775 178 243 -448
2021-09-23 07:48:18 GMT 48.936085 2.322886 3,875 179 244 -1344
2021-09-23 07:48:15 GMT 48.939377 2.322763 3,875 179 244 -1088
2021-09-23 07:48:12 GMT 48.942554 2.322669 3,950 180 243 -1408
2021-09-23 07:48:08 GMT 48.947815 2.322596 4,150 182 242 -1408
2021-09-23 07:48:05 GMT 48.951077 2.322669 4,275 188 239 -1280
2021-09-23 07:48:02 GMT 48.954437 2.322834 4,225 188 239 -1280
2021-09-23 07:47:59 GMT 48.957870 2.323256 4,300 212 234 -384
2021-09-23 07:47:56 GMT 48.961258 2.324031 4,325 194 237 -768
2021-09-23 07:47:53 GMT 48.964016 2.325054 4,350 202 237 -448
2021-09-23 07:47:49 GMT 48.968307 2.327482 4,375 206 235 -448
2021-09-23 07:47:45 GMT 48.971977 2.330403 4,400 214 234 -320
2021-09-23 07:47:42 GMT 48.974258 2.332834 4,400 222 231 0
2021-09-23 07:47:39 GMT 48.977097 2.336567 4,375 232 228 512
2021-09-23 07:47:36 GMT 48.979752 2.340933 4,375 244 226 512
2021-09-23 07:47:33 GMT 48.981567 2.344858 4,325 244 226 512
2021-09-23 07:47:29 GMT 48.983475 2.350279 4,300 249 225 512
2021-09-23 07:47:25 GMT 48.984695 2.355370 4,275 266 222 384
2021-09-23 07:47:21 GMT 48.985569 2.360832 4,250 265 224 448
2021-09-23 07:47:18 GMT 48.986023 2.366145 4,225 266 222 448
2021-09-23 07:47:15 GMT 48.986267 2.370734 4,200 266 222 512
2021-09-23 07:47:12 GMT 48.986546 2.374926 4,150 266 222 448
2021-09-23 07:47:08 GMT 48.986919 2.381648 4,150 266 222 448
2021-09-23 07:47:04 GMT 48.987213 2.387273 4,075 266 221 320
2021-09-23 07:47:01 GMT 48.987442 2.391780 4,100 266 222 384
2021-09-23 07:46:55 GMT 48.988037 2.402464 4,050 266 221 192
2021-09-23 07:46:52 GMT 48.988316 2.408536 4,050 266 223 320
2021-09-23 07:46:49 GMT 48.988678 2.415091 4,000 265 215 384
2021-09-23 07:46:46 GMT 48.988678 2.415091 4,000 265 215 384
2021-09-23 07:46:42 GMT 48.989109 2.421979 3,950 265 208 832
2021-09-23 07:46:38 GMT 48.989479 2.428629 3,900 265 201 768
2021-09-23 07:46:35 GMT 48.989731 2.433120 3,850 266 197 960
2021-09-23 07:46:32 GMT 48.989990 2.437086 3,775 265 193 1024
2021-09-23 07:46:27 GMT 48.990372 2.443965 3,725 266 187 960
2021-09-23 07:46:24 GMT 48.990505 2.446410 3,700 266 184 960
2021-09-23 07:46:20 GMT 48.990738 2.451324 3,650 266 178 896
2021-09-23 07:46:17 GMT 48.990925 2.455300 3,575 266 174 896
2021-09-23 07:46:14 GMT 48.991150 2.459459 3,525 266 171 960
2021-09-23 07:46:11 GMT 48.991287 2.462698 3,500 266 168 1024
2021-09-23 07:46:06 GMT 48.991608 2.468755 3,400 266 162 1088
2021-09-23 07:46:03 GMT 48.991760 2.471707 3,350 266 160 1152
2021-09-23 07:46:00 GMT 48.991928 2.475023 3,300 266 156 1280
2021-09-23 07:45:57 GMT 48.992088 2.478863 3,175 267 153 1984
2021-09-23 07:45:54 GMT 48.992249 2.482206 3,100 266 154 2112
2021-09-23 07:45:50 GMT 48.992413 2.485512 3,000 266 154 2048
2021-09-23 07:45:47 GMT 48.992599 2.489632 2,825 266 154 1856
2021-09-23 07:45:44 GMT 48.992786 2.492812 2,775 266 154 1856
2021-09-23 07:45:41 GMT 48.992981 2.496925 2,625 266 153 1856
2021-09-23 07:45:37 GMT 48.993164 2.500235 2,525 266 152 1792
2021-09-23 07:45:34 GMT 48.993347 2.503545 2,475 266 152 1856
2021-09-23 07:45:30 GMT 48.993576 2.507846 2,350 266 151 1984
2021-09-23 07:45:26 GMT 48.993942 2.514954 2,200 266 152 1920
2021-09-23 07:45:23 GMT 48.993942 2.514954 2,125 266 152 1856
2021-09-23 07:45:19 GMT 48.994125 2.519320 1,725 266 149 2112
2021-09-23 07:45:16 GMT 48.994308 2.522982 1,775 266 149 2496
2021-09-23 07:45:13 GMT 48.994461 2.525916 1,625 266 149 2240
2021-09-23 07:45:09 GMT 48.994648 2.529963 1,675 266 149 2304
2021-09-23 07:45:05 GMT 48.994858 2.534461 1,475 266 149 2496
2021-09-23 07:45:02 GMT 48.995022 2.536902 1,325 266 150 2624
2021-09-23 07:44:59 GMT 48.995159 2.540155 1,225 266 150 2624
2021-09-23 07:44:55 GMT 48.995361 2.544462 900 266 152 2688
2021-09-23 07:44:50 GMT 48.995625 2.549840 825 266 154 2560

Making use of Plane Finder data

You are free to use the raw flight data, aircraft information and images provided in this report for your own purposes provided the data is correctly attributed to Plane Finder. We ask that you please credit Plane Finder and link to planefinder.net in close proximity to the content.

Optionally one of the following logos (no smaller then 150x24px) can be used and must link to planefinder.net

Embedding the Plane Finder map

You are welcome to embed the Plane Finder playback map on your website to offer visitors a more interactive experience. We suggest using the following HTML code:

<iframe src="//planefinder.net/data/report/AF7622-F-GKXQ-7700-squawk-2021-09-23/map" width="800" height="600" seamless="seamless"></iframe>

Where our data comes from

Plane Finder has a global network of data feeds and antenna radars that receive data broadcast directly from aircraft. The primary technologies used are ADS-B and MLAT. We also show feeds from the FAA and a FLARM glider feed.

Click here to find out more about the Plane Finder network.

How we collect our data